Terminal Aerodrome Forecast
Issued by NWS Jackson, MS

Home | Current Version | Previous Version | Text Only | Print | Product List | Glossary On
Versions: 1 2 3 4 5 6 7 8 9 10 11 12 13
000
FTUS44 KJAN 032300
TAFGWO
TAF
KGWO 032324Z 0400/0424 18006KT P6SM VCSH BKN030
     FM040300 17009KT P6SM VCSH OVC015
     FM040600 19012KT P6SM OVC007
     FM041000 19007KT 6SM BR OVC007
     FM041200 20008KT 4SM BR OVC007
     FM041800 28011KT 2SM -RA BR OVC007
     FM042000 36013G19KT 1 1/2SM -RA BR OVC003=

USA.gov is the U.S. government's official web portal to all federal, state and local government web resources and services.